createdAt,value
2022-09-03T00:00:12.633Z,41.47
2022-09-03T00:02:52.823Z,41.76
2022-09-03T00:05:51.951Z,41.79
2022-09-03T00:08:35.708Z,42.27
2022-09-03T00:11:26.059Z,42.42
2022-09-03T00:14:18.254Z,42.80
2022-09-03T00:17:16.600Z,42.60
2022-09-03T00:20:19.330Z,42.97
2022-09-03T00:22:57.811Z,43.51
2022-09-03T00:25:48.815Z,43.88
2022-09-03T00:28:29.970Z,43.62
2022-09-03T00:31:29.389Z,43.81
2022-09-03T00:34:08.071Z,44.23
2022-09-03T00:36:43.368Z,44.11
2022-09-03T00:39:19.038Z,44.06
2022-09-03T00:42:16.993Z,44.52
2022-09-03T00:45:38.734Z,44.50
2022-09-03T00:48:27.964Z,44.96
2022-09-03T00:51:20.574Z,45.08
2022-09-03T00:54:42.044Z,45.12
2022-09-03T00:57:39.522Z,44.83
2022-09-03T01:00:16.295Z,45.06
2022-09-03T01:03:14.291Z,45.50
2022-09-03T01:06:03.516Z,45.36
2022-09-03T01:09:04.028Z,45.67
2022-09-03T01:11:47.373Z,45.85
2022-09-03T01:14:43.888Z,46.02
2022-09-03T01:17:26.291Z,45.87
2022-09-03T01:21:01.003Z,45.89
2022-09-03T01:23:53.627Z,46.47
2022-09-03T01:27:35.578Z,46.57
2022-09-03T01:30:17.140Z,46.55
2022-09-03T01:33:17.232Z,46.83
2022-09-03T01:36:30.612Z,46.79
2022-09-03T01:39:06.970Z,46.84
2022-09-03T01:42:20.213Z,47.03
2022-09-03T01:45:12.905Z,47.17
2022-09-03T01:47:59.450Z,46.89
2022-09-03T01:50:37.205Z,47.10
2022-09-03T01:53:58.145Z,47.66
2022-09-03T01:57:03.757Z,47.82
2022-09-03T01:59:43.647Z,47.97
2022-09-03T02:02:27.832Z,47.97
2022-09-03T02:05:09.786Z,48.17
2022-09-03T02:08:02.978Z,48.28
2022-09-03T02:10:46.558Z,48.27
2022-09-03T02:13:28.082Z,48.55
2022-09-03T02:16:11.268Z,48.81
2022-09-03T02:19:13.167Z,48.26
2022-09-03T02:21:52.535Z,48.77
2022-09-03T02:24:26.291Z,48.51
2022-09-03T02:26:58.317Z,48.81
2022-09-03T02:29:30.879Z,48.83
2022-09-03T02:32:03.230Z,49.28
2022-09-03T02:34:35.399Z,49.42
2022-09-03T02:37:18.538Z,49.56
2022-09-03T02:39:52.224Z,49.73
2022-09-03T02:42:24.511Z,49.63
2022-09-03T02:45:18.757Z,50.10
2022-09-03T02:47:55.849Z,50.05
2022-09-03T02:50:28.002Z,50.66
2022-09-03T02:53:00.068Z,50.22
2022-09-03T02:55:32.012Z,50.51
2022-09-03T02:58:06.942Z,50.64
2022-09-03T03:00:38.950Z,50.51
2022-09-03T03:03:10.949Z,50.71
2022-09-03T03:05:49.393Z,50.79
2022-09-03T03:08:25.241Z,50.47
2022-09-03T03:11:00.838Z,50.74
2022-09-03T03:13:33.792Z,51.12
2022-09-03T03:16:06.605Z,51.28
2022-09-03T03:18:39.411Z,50.95
2022-09-03T03:21:17.963Z,50.91
2022-09-03T03:23:50.069Z,51.21
2022-09-03T03:26:24.274Z,51.25
2022-09-03T03:28:59.517Z,51.09
2022-09-03T03:31:32.231Z,51.46
2022-09-03T03:34:04.290Z,51.24
2022-09-03T03:36:36.566Z,51.11
2022-09-03T03:39:11.372Z,51.41
2022-09-03T03:41:43.489Z,51.39
2022-09-03T03:44:15.867Z,51.57
2022-09-03T03:46:47.885Z,51.44
2022-09-03T03:49:19.842Z,51.55
2022-09-03T03:51:51.780Z,51.80
2022-09-03T03:54:24.731Z,51.95
2022-09-03T03:56:57.053Z,51.81
2022-09-03T03:59:29.048Z,51.95
2022-09-03T04:02:01.134Z,52.26
2022-09-03T04:04:33.141Z,52.06
2022-09-03T04:07:05.093Z,51.72
2022-09-03T04:09:37.904Z,51.94
2022-09-03T04:12:10.207Z,52.11
2022-09-03T04:14:42.870Z,52.17
2022-09-03T04:17:15.206Z,52.27
2022-09-03T04:19:49.033Z,52.49
2022-09-03T04:22:20.997Z,52.39
2022-09-03T04:24:52.957Z,52.75
2022-09-03T04:27:24.967Z,52.85
2022-09-03T04:29:57.122Z,52.90
2022-09-03T04:32:47.408Z,53.12
2022-09-03T04:35:23.789Z,53.32
2022-09-03T04:37:56.229Z,53.11
2022-09-03T04:40:28.202Z,53.24
2022-09-03T04:43:00.902Z,53.36
2022-09-03T04:45:33.037Z,53.21
2022-09-03T04:48:05.578Z,53.37
2022-09-03T04:50:37.904Z,53.25
2022-09-03T04:53:09.928Z,53.22
2022-09-03T04:55:41.936Z,53.43
2022-09-03T04:58:13.912Z,53.81
2022-09-03T05:00:45.935Z,53.56
2022-09-03T05:03:17.953Z,53.50
2022-09-03T05:05:56.500Z,53.64
2022-09-03T05:08:28.460Z,53.55
2022-09-03T05:11:01.454Z,53.20
2022-09-03T05:13:35.157Z,53.58
2022-09-03T05:16:11.034Z,53.73
2022-09-03T05:18:45.134Z,53.82
2022-09-03T05:21:19.185Z,53.74
2022-09-03T05:23:52.928Z,53.59
2022-09-03T05:26:29.186Z,53.57
2022-09-03T05:29:04.408Z,53.63
2022-09-03T05:31:39.836Z,53.50
2022-09-03T05:34:16.634Z,53.29
2022-09-03T05:36:50.629Z,53.36
2022-09-03T05:39:22.663Z,53.45
2022-09-03T05:41:54.655Z,53.40
2022-09-03T05:44:26.739Z,53.13
2022-09-03T05:46:59.597Z,53.28
2022-09-03T05:49:32.074Z,53.41
2022-09-03T05:52:04.033Z,53.20
2022-09-03T05:54:36.237Z,53.33
2022-09-03T05:57:08.189Z,53.37
2022-09-03T05:59:40.121Z,52.98
2022-09-03T06:02:12.364Z,53.20
2022-09-03T06:04:44.438Z,52.56
2022-09-03T06:07:16.772Z,52.48
2022-09-03T06:09:48.887Z,52.83
2022-09-03T06:12:20.875Z,52.24
2022-09-03T06:14:52.841Z,51.68
2022-09-03T06:17:24.909Z,51.96
2022-09-03T06:19:57.361Z,52.21
2022-09-03T06:22:31.361Z,51.99
2022-09-03T06:25:03.479Z,51.53
2022-09-03T06:27:36.939Z,51.11
2022-09-03T06:30:09.634Z,51.12
2022-09-03T06:32:50.640Z,51.16
2022-09-03T06:35:22.589Z,50.51
2022-09-03T06:37:54.610Z,50.27
2022-09-03T06:40:26.852Z,50.14
2022-09-03T06:43:03.463Z,49.50
2022-09-03T06:45:35.511Z,48.92
2022-09-03T06:48:07.558Z,48.53
2022-09-03T06:50:42.360Z,48.68
2022-09-03T06:53:14.975Z,47.95
2022-09-03T06:55:58.466Z,47.31
2022-09-03T06:58:37.915Z,47.02
2022-09-03T07:01:19.765Z,47.13
2022-09-03T07:03:58.523Z,46.64
2022-09-03T07:06:39.626Z,45.94
2022-09-03T07:09:13.490Z,45.68
2022-09-03T07:11:49.457Z,45.07
2022-09-03T07:14:22.389Z,44.25
2022-09-03T07:16:54.568Z,43.95
2022-09-03T07:19:26.611Z,43.59
2022-09-03T07:21:58.612Z,42.59
2022-09-03T07:24:30.627Z,42.64
2022-09-03T07:27:02.809Z,42.04
2022-09-03T07:29:34.799Z,41.77
2022-09-03T07:32:07.140Z,41.22
2022-09-03T07:34:39.163Z,40.97
2022-09-03T07:37:12.465Z,40.80
2022-09-03T07:39:44.438Z,40.37
2022-09-03T07:42:16.501Z,39.92
2022-09-03T07:44:48.462Z,39.12
2022-09-03T07:47:25.176Z,38.81
2022-09-03T07:49:59.207Z,38.23
2022-09-03T07:52:31.570Z,37.64
2022-09-03T07:55:04.941Z,36.40
2022-09-03T07:57:37.425Z,37.10
2022-09-03T08:00:10.215Z,37.91
2022-09-03T08:02:46.126Z,36.91
2022-09-03T08:05:21.371Z,36.73
2022-09-03T08:07:53.451Z,36.00
2022-09-03T08:10:28.576Z,35.56
2022-09-03T08:13:00.590Z,34.15
2022-09-03T08:15:34.336Z,33.68
2022-09-03T08:18:06.582Z,33.12
2022-09-03T08:20:39.089Z,32.88
2022-09-03T08:23:11.166Z,32.02
2022-09-03T08:25:43.501Z,31.30
2022-09-03T08:28:15.561Z,31.79
2022-09-03T08:30:47.589Z,30.50
2022-09-03T08:33:37.140Z,30.81
2022-09-03T08:36:19.478Z,29.88
2022-09-03T08:38:55.085Z,28.56
2022-09-03T08:42:10.608Z,28.48
2022-09-03T08:44:58.736Z,27.62
2022-09-03T08:47:48.527Z,26.35
2022-09-03T08:50:34.416Z,26.09
2022-09-03T08:53:36.502Z,24.64
2022-09-03T08:56:13.704Z,22.84
2022-09-03T08:58:46.027Z,21.97
2022-09-03T09:01:35.617Z,21.64
2022-09-03T09:04:26.363Z,21.28
2022-09-03T09:07:07.240Z,20.55
2022-09-03T09:09:57.262Z,19.60
2022-09-03T09:12:46.821Z,18.94
2022-09-03T09:15:36.627Z,18.84
2022-09-03T09:18:37.703Z,18.25
2022-09-03T09:21:20.974Z,19.08
2022-09-03T09:24:03.556Z,19.24
2022-09-03T09:26:35.706Z,18.41
2022-09-03T09:29:11.013Z,19.05
2022-09-03T09:31:46.221Z,18.71
2022-09-03T09:34:18.771Z,18.30
2022-09-03T09:36:55.908Z,18.21
2022-09-03T09:39:27.945Z,17.59
2022-09-03T09:42:14.180Z,17.01
2022-09-03T09:44:46.158Z,16.82
2022-09-03T09:47:29.842Z,16.62
2022-09-03T09:50:03.926Z,17.28
2022-09-03T09:52:35.866Z,17.07
2022-09-03T09:55:15.876Z,17.05
2022-09-03T09:57:48.090Z,17.42
2022-09-03T10:00:20.131Z,16.99
2022-09-03T10:02:54.788Z,16.72
2022-09-03T10:05:37.945Z,16.82
2022-09-03T10:08:25.628Z,16.55
2022-09-03T10:10:57.618Z,16.32
2022-09-03T10:13:43.139Z,15.09
2022-09-03T10:16:40.638Z,15.97
2022-09-03T10:19:17.905Z,15.63
2022-09-03T10:22:08.369Z,15.00
2022-09-03T10:24:59.940Z,13.95
2022-09-03T10:27:32.517Z,13.28
2022-09-03T10:30:08.790Z,13.72
2022-09-03T10:32:59.546Z,13.73
2022-09-03T10:36:12.615Z,13.96
2022-09-03T10:39:12.255Z,14.19
2022-09-03T10:42:26.033Z,13.21
2022-09-03T10:45:15.889Z,13.45
2022-09-03T10:48:24.852Z,13.06
2022-09-03T10:50:59.445Z,12.69
2022-09-03T10:53:56.692Z,13.25
2022-09-03T10:56:54.964Z,12.86
2022-09-03T11:00:12.901Z,13.25
2022-09-03T11:03:45.766Z,13.38
2022-09-03T11:06:30.834Z,13.33
2022-09-03T11:09:20.105Z,12.60
2022-09-03T11:12:02.026Z,12.56
2022-09-03T11:14:44.813Z,12.94
2022-09-03T11:17:37.377Z,12.38
2022-09-03T11:20:25.722Z,12.30
2022-09-03T11:23:02.244Z,12.26
2022-09-03T11:25:50.829Z,11.98
2022-09-03T11:28:42.279Z,12.34
2022-09-03T11:31:52.353Z,12.91
2022-09-03T11:34:32.036Z,12.98
2022-09-03T11:37:29.266Z,12.14
2022-09-03T11:40:16.916Z,12.21
2022-09-03T11:42:51.378Z,12.00
2022-09-03T11:45:31.947Z,12.34
2022-09-03T11:48:35.091Z,11.61
2022-09-03T11:51:30.179Z,12.08
2022-09-03T11:54:07.851Z,11.42
2022-09-03T11:56:45.872Z,11.09
2022-09-03T11:59:26.513Z,11.94
2022-09-03T12:02:28.797Z,12.23
2022-09-03T12:05:44.982Z,11.96
2022-09-03T12:08:49.197Z,11.89
2022-09-03T12:12:01.187Z,11.57
2022-09-03T12:14:47.362Z,11.89
2022-09-03T12:18:13.579Z,11.61
2022-09-03T12:20:47.818Z,12.30
2022-09-03T12:23:44.599Z,13.19
2022-09-03T12:26:24.754Z,13.45
2022-09-03T12:28:59.125Z,13.27
2022-09-03T12:31:44.302Z,13.51
2022-09-03T12:34:19.744Z,12.85
2022-09-03T12:36:54.769Z,14.57
2022-09-03T12:42:28.674Z,14.78
2022-09-03T12:45:08.296Z,15.15
2022-09-03T12:47:40.902Z,14.32
2022-09-03T12:50:20.326Z,14.74
2022-09-03T12:53:03.676Z,15.48
2022-09-03T12:55:42.441Z,16.09
2022-09-03T12:58:23.206Z,15.97
2022-09-03T13:01:01.223Z,15.99
2022-09-03T13:03:50.265Z,16.54
2022-09-03T13:06:29.984Z,16.17
2022-09-03T13:09:06.961Z,17.17
2022-09-03T13:11:39.362Z,17.16
2022-09-03T13:14:17.754Z,17.00
2022-09-03T13:17:59.670Z,17.49
2022-09-03T13:21:12.370Z,18.29
2022-09-03T13:24:15.415Z,18.25
2022-09-03T13:27:18.261Z,18.54
2022-09-03T13:30:11.830Z,19.37
2022-09-03T13:33:02.400Z,19.14
2022-09-03T13:36:22.561Z,19.35
2022-09-03T13:39:13.046Z,19.30
2022-09-03T13:42:47.237Z,20.70
2022-09-03T13:45:51.937Z,19.75
2022-09-03T13:48:54.689Z,19.77
2022-09-03T13:51:32.447Z,20.54
2022-09-03T13:54:48.153Z,20.66
2022-09-03T13:57:31.389Z,21.08
2022-09-03T14:00:10.597Z,21.18
2022-09-03T14:03:14.655Z,21.30
2022-09-03T14:06:09.998Z,20.94
2022-09-03T14:09:52.206Z,22.31
2022-09-03T14:12:51.376Z,21.07
2022-09-03T14:15:51.633Z,21.55
2022-09-03T14:19:11.883Z,21.75
2022-09-03T14:21:56.783Z,21.32
2022-09-03T14:24:58.385Z,21.47
2022-09-03T14:27:34.987Z,21.57
2022-09-03T14:30:34.722Z,21.56
2022-09-03T14:33:33.346Z,22.12
2022-09-03T14:36:36.392Z,22.56
2022-09-03T14:39:46.671Z,22.46
2022-09-03T14:43:00.337Z,22.32
2022-09-03T14:45:51.121Z,22.05
2022-09-03T14:49:02.306Z,22.07
2022-09-03T14:51:42.878Z,22.22
2022-09-03T14:55:07.133Z,22.33
2022-09-03T14:58:19.469Z,22.74
2022-09-03T15:01:18.979Z,21.76
2022-09-03T15:04:20.410Z,22.78
2022-09-03T15:07:08.754Z,22.49
2022-09-03T15:10:02.618Z,23.14
2022-09-03T15:12:48.739Z,22.73
2022-09-03T15:15:41.855Z,23.34
2022-09-03T15:18:54.124Z,23.36
2022-09-03T15:21:44.578Z,23.08
2022-09-03T15:24:38.407Z,23.79
2022-09-03T15:27:47.512Z,23.63
2022-09-03T15:30:21.041Z,23.13
2022-09-03T15:32:55.971Z,23.96
2022-09-03T15:35:52.808Z,23.74
2022-09-03T15:38:50.802Z,23.21
2022-09-03T15:41:40.791Z,24.27
2022-09-03T15:44:19.521Z,24.30
2022-09-03T15:47:14.221Z,24.32
2022-09-03T15:50:01.675Z,24.09
2022-09-03T15:53:24.580Z,24.35
2022-09-03T15:56:10.481Z,24.48
2022-09-03T15:59:28.908Z,24.83
2022-09-03T16:02:14.612Z,24.69
2022-09-03T16:05:06.206Z,24.62
2022-09-03T16:07:38.062Z,24.70
2022-09-03T16:10:24.524Z,24.33
2022-09-03T16:13:38.719Z,24.89
2022-09-03T16:16:30.609Z,25.04
2022-09-03T16:19:21.594Z,24.94
2022-09-03T16:22:17.660Z,24.95
2022-09-03T16:25:01.166Z,25.42
2022-09-03T16:28:14.716Z,25.55
2022-09-03T16:31:21.849Z,25.29
2022-09-03T16:34:23.190Z,25.50
2022-09-03T16:37:07.394Z,25.14
2022-09-03T16:40:28.779Z,26.27
2022-09-03T16:43:40.695Z,25.84
2022-09-03T16:46:54.685Z,25.85
2022-09-03T16:50:08.575Z,26.02
2022-09-03T16:53:14.865Z,25.92
2022-09-03T16:56:09.668Z,25.93
2022-09-03T16:59:04.731Z,26.39
2022-09-03T17:01:37.399Z,25.76
2022-09-03T17:04:47.119Z,26.20
2022-09-03T17:07:48.141Z,25.55
2022-09-03T17:10:44.422Z,26.17
2022-09-03T17:13:41.126Z,26.41
2022-09-03T17:16:56.546Z,26.07
2022-09-03T17:19:53.557Z,27.41
2022-09-03T17:23:09.878Z,26.53
2022-09-03T17:26:16.916Z,26.19
2022-09-03T17:28:51.573Z,25.78
2022-09-03T17:31:51.854Z,26.00
2022-09-03T17:34:59.554Z,26.24
2022-09-03T17:38:04.525Z,25.90
2022-09-03T17:41:19.763Z,26.19
2022-09-03T17:44:02.474Z,26.29
2022-09-03T17:47:16.788Z,25.87
2022-09-03T17:50:09.338Z,26.19
2022-09-03T17:52:55.740Z,26.48
2022-09-03T17:55:39.168Z,26.37
2022-09-03T17:58:28.309Z,26.06
2022-09-03T18:01:20.527Z,26.13
2022-09-03T18:04:14.204Z,26.19
2022-09-03T18:07:11.487Z,26.55
2022-09-03T18:10:14.021Z,26.16
2022-09-03T18:13:13.564Z,26.48
2022-09-03T18:15:57.815Z,26.58
2022-09-03T18:18:32.945Z,26.01
2022-09-03T18:21:31.886Z,26.83
2022-09-03T18:24:51.373Z,26.54
2022-09-03T18:27:54.363Z,26.73
2022-09-03T18:30:46.728Z,27.07
2022-09-03T18:33:43.077Z,27.15
2022-09-03T18:36:33.965Z,27.24
2022-09-03T18:39:43.087Z,27.36
2022-09-03T18:42:55.444Z,26.97
2022-09-03T18:47:05.788Z,27.49
2022-09-03T18:49:59.478Z,28.10
2022-09-03T18:53:29.968Z,28.36
2022-09-03T18:56:34.619Z,27.67
2022-09-03T19:00:10.152Z,28.28
2022-09-03T19:03:31.060Z,28.40
2022-09-03T19:06:42.791Z,28.54
2022-09-03T19:10:04.747Z,28.72
2022-09-03T19:13:14.283Z,29.04
2022-09-03T19:16:47.957Z,28.61
2022-09-03T19:20:29.921Z,29.69
2022-09-03T19:23:22.824Z,28.70
2022-09-03T19:26:53.142Z,28.79
2022-09-03T19:30:11.418Z,29.28
2022-09-03T19:33:44.789Z,29.50
2022-09-03T19:37:21.539Z,29.48
2022-09-03T19:40:54.051Z,29.45
2022-09-03T19:44:08.178Z,29.94
2022-09-03T19:47:21.756Z,29.98
2022-09-03T19:50:41.599Z,29.76
2022-09-03T19:53:37.078Z,30.07
2022-09-03T19:56:48.548Z,30.25
2022-09-03T19:59:43.314Z,30.46
2022-09-03T20:02:33.762Z,30.38
2022-09-03T20:05:29.955Z,30.37
2022-09-03T20:08:20.812Z,30.55
2022-09-03T20:10:56.968Z,30.79
2022-09-03T20:13:48.939Z,31.13
2022-09-03T20:16:36.975Z,30.71
2022-09-03T20:19:45.621Z,30.61
2022-09-03T20:22:44.475Z,31.11
2022-09-03T20:25:45.363Z,30.85
2022-09-03T20:28:32.518Z,31.32
2022-09-03T20:31:40.248Z,31.40
2022-09-03T20:34:30.761Z,31.51
2022-09-03T20:37:24.589Z,31.88
2022-09-03T20:40:40.111Z,31.79
2022-09-03T20:43:37.285Z,31.98
2022-09-03T20:46:22.016Z,31.93
2022-09-03T20:49:41.820Z,31.55
2022-09-03T20:52:45.830Z,32.21
2022-09-03T20:55:33.133Z,32.34
2022-09-03T20:58:35.391Z,32.32
2022-09-03T21:01:23.317Z,32.46
2022-09-03T21:04:26.583Z,32.57
2022-09-03T21:07:07.519Z,32.62
2022-09-03T21:10:04.303Z,32.68
2022-09-03T21:12:45.520Z,32.78
2022-09-03T21:15:42.915Z,33.24
2022-09-03T21:19:09.718Z,33.27
2022-09-03T21:21:59.999Z,33.36
2022-09-03T21:24:42.881Z,33.53
2022-09-03T21:27:20.983Z,33.81
2022-09-03T21:30:06.634Z,34.02
2022-09-03T21:33:03.726Z,33.83
2022-09-03T21:36:15.811Z,33.71
2022-09-03T21:38:59.878Z,34.47
2022-09-03T21:41:40.434Z,34.25
2022-09-03T21:44:30.625Z,34.30
2022-09-03T21:47:09.230Z,34.29
2022-09-03T21:50:16.907Z,34.51
2022-09-03T21:53:15.052Z,34.25
2022-09-03T21:56:17.204Z,34.55
2022-09-03T21:59:50.865Z,34.69
2022-09-03T22:02:32.880Z,34.53
2022-09-03T22:05:07.038Z,34.72
2022-09-03T22:07:53.359Z,34.83
2022-09-03T22:10:47.147Z,35.18
2022-09-03T22:14:05.980Z,34.88
2022-09-03T22:17:24.059Z,35.12
2022-09-03T22:19:56.710Z,35.11
2022-09-03T22:22:59.161Z,35.85
2022-09-03T22:25:45.421Z,35.47
2022-09-03T22:28:39.028Z,35.75
2022-09-03T22:31:29.577Z,35.86
2022-09-03T22:34:26.921Z,35.67
2022-09-03T22:37:06.770Z,36.10
2022-09-03T22:39:46.514Z,36.29
2022-09-03T22:42:32.696Z,36.11
2022-09-03T22:45:40.488Z,36.45
2022-09-03T22:48:48.730Z,36.59
2022-09-03T22:51:22.004Z,36.73
2022-09-03T22:54:28.015Z,36.85
2022-09-03T22:57:02.619Z,36.82
2022-09-03T23:00:09.571Z,36.88
2022-09-03T23:02:42.719Z,37.02
2022-09-03T23:05:51.706Z,37.27
2022-09-03T23:08:32.785Z,37.35
2022-09-03T23:11:35.369Z,37.35
2022-09-03T23:14:16.130Z,37.41
2022-09-03T23:17:13.415Z,38.01
2022-09-03T23:19:51.292Z,37.62
2022-09-03T23:22:54.589Z,38.04
2022-09-03T23:25:43.716Z,38.06
2022-09-03T23:28:29.368Z,38.51
2022-09-03T23:31:24.591Z,38.14
2022-09-03T23:33:57.451Z,38.24
2022-09-03T23:37:15.941Z,38.47
2022-09-03T23:40:21.161Z,38.35
2022-09-03T23:43:39.181Z,38.85
2022-09-03T23:46:17.003Z,39.13
2022-09-03T23:49:20.883Z,38.93
2022-09-03T23:52:24.392Z,38.91
2022-09-03T23:55:17.343Z,39.12
2022-09-03T23:58:06.121Z,38.90
